sensor_id;sensor_type;location;lat;lon;timestamp;pressure;altitude;pressure_sealevel;temperature;humidity
47763;BME280;33526;42.690;23.322;2022-11-15T00:00:46;95683.13;;;4.69;93.75
47763;BME280;33526;42.690;23.322;2022-11-15T00:03:16;95688.75;;;4.62;93.79
47763;BME280;33526;42.690;23.322;2022-11-15T00:05:42;95682.44;;;4.61;93.21
47763;BME280;33526;42.690;23.322;2022-11-15T00:08:09;95651.19;;;4.26;92.73
47763;BME280;33526;42.690;23.322;2022-11-15T00:10:34;95661.50;;;4.26;92.72
47763;BME280;33526;42.690;23.322;2022-11-15T00:13:00;95674.13;;;4.27;93.39
47763;BME280;33526;42.690;23.322;2022-11-15T00:15:29;95691.13;;;4.29;93.91
47763;BME280;33526;42.690;23.322;2022-11-15T00:17:54;95671.06;;;4.17;93.96
47763;BME280;33526;42.690;23.322;2022-11-15T00:20:20;95624.03;;;3.79;94.17
47763;BME280;33526;42.690;23.322;2022-11-15T00:22:46;95644.09;;;3.91;94.54
47763;BME280;33526;42.690;23.322;2022-11-15T00:25:11;95655.50;;;3.96;94.97
47763;BME280;33526;42.690;23.322;2022-11-15T00:27:37;95667.16;;;4.15;95.07
47763;BME280;33526;42.690;23.322;2022-11-15T00:30:03;95658.88;;;4.11;95.36
47763;BME280;33526;42.690;23.322;2022-11-15T00:32:31;95672.09;;;4.31;94.73
47763;BME280;33526;42.690;23.322;2022-11-15T00:34:57;95657.41;;;4.34;94.97
47763;BME280;33526;42.690;23.322;2022-11-15T00:37:23;95606.53;;;3.90;94.61
47763;BME280;33526;42.690;23.322;2022-11-15T00:39:48;95659.13;;;4.24;95.13
47763;BME280;33526;42.690;23.322;2022-11-15T00:42:13;95663.97;;;4.16;94.58
47763;BME280;33526;42.690;23.322;2022-11-15T00:44:39;95599.09;;;3.83;94.71
47763;BME280;33526;42.690;23.322;2022-11-15T00:47:04;95656.75;;;4.22;94.99
47763;BME280;33526;42.690;23.322;2022-11-15T00:49:29;95627.00;;;3.96;95.08
47763;BME280;33526;42.690;23.322;2022-11-15T00:51:55;95639.22;;;4.02;95.41
47763;BME280;33526;42.690;23.322;2022-11-15T00:54:21;95652.13;;;4.12;95.37
47763;BME280;33526;42.690;23.322;2022-11-15T00:56:46;95651.97;;;4.27;95.77
47763;BME280;33526;42.690;23.322;2022-11-15T00:59:11;95645.69;;;4.22;95.07
47763;BME280;33526;42.690;23.322;2022-11-15T01:01:37;95655.94;;;4.26;94.95
47763;BME280;33526;42.690;23.322;2022-11-15T01:04:02;95650.81;;;4.24;94.56
47763;BME280;33526;42.690;23.322;2022-11-15T01:06:28;95586.59;;;3.71;93.68
47763;BME280;33526;42.690;23.322;2022-11-15T01:08:53;95638.00;;;4.03;93.88
47763;BME280;33526;42.690;23.322;2022-11-15T01:11:18;95657.00;;;4.01;94.55
47763;BME280;33526;42.690;23.322;2022-11-15T01:13:44;95629.94;;;3.81;94.58
47763;BME280;33526;42.690;23.322;2022-11-15T01:16:13;95631.13;;;3.80;94.76
47763;BME280;33526;42.690;23.322;2022-11-15T01:18:39;95650.88;;;3.82;94.71
47763;BME280;33526;42.690;23.322;2022-11-15T01:21:07;95632.88;;;3.63;95.33
47763;BME280;33526;42.690;23.322;2022-11-15T01:23:33;95636.00;;;3.69;95.16
47763;BME280;33526;42.690;23.322;2022-11-15T01:26:03;95637.56;;;3.70;95.57
47763;BME280;33526;42.690;23.322;2022-11-15T01:28:31;95655.28;;;3.76;94.84
47763;BME280;33526;42.690;23.322;2022-11-15T01:31:01;95643.03;;;3.77;95.18
47763;BME280;33526;42.690;23.322;2022-11-15T01:33:28;95628.06;;;3.71;95.12
47763;BME280;33526;42.690;23.322;2022-11-15T01:35:53;95646.44;;;3.89;95.69
47763;BME280;33526;42.690;23.322;2022-11-15T01:38:19;95625.59;;;3.80;95.74
47763;BME280;33526;42.690;23.322;2022-11-15T01:40:44;95599.16;;;3.76;95.67
47763;BME280;33526;42.690;23.322;2022-11-15T01:43:20;95633.84;;;3.88;96.40
47763;BME280;33526;42.690;23.322;2022-11-15T01:45:51;95638.91;;;3.93;96.63
47763;BME280;33526;42.690;23.322;2022-11-15T01:48:17;95641.13;;;4.05;97.13
47763;BME280;33526;42.690;23.322;2022-11-15T01:50:43;95593.25;;;3.74;96.33
47763;BME280;33526;42.690;23.322;2022-11-15T01:53:09;95616.78;;;3.93;96.28
47763;BME280;33526;42.690;23.322;2022-11-15T01:55:36;95582.16;;;3.77;95.87
47763;BME280;33526;42.690;23.322;2022-11-15T01:58:04;95643.38;;;4.17;95.06
47763;BME280;33526;42.690;23.322;2022-11-15T02:00:31;95642.63;;;4.13;94.18
47763;BME280;33526;42.690;23.322;2022-11-15T02:02:57;95597.16;;;3.80;94.15
47763;BME280;33526;42.690;23.322;2022-11-15T02:05:23;95607.03;;;3.81;93.76
47763;BME280;33526;42.690;23.322;2022-11-15T02:07:48;95639.59;;;4.04;93.40
47763;BME280;33526;42.690;23.322;2022-11-15T02:10:18;95631.00;;;3.95;93.02
47763;BME280;33526;42.690;23.322;2022-11-15T02:12:45;95594.88;;;3.71;93.12
47763;BME280;33526;42.690;23.322;2022-11-15T02:15:12;95603.97;;;3.72;92.67
47763;BME280;33526;42.690;23.322;2022-11-15T02:31:12;95634.09;;;3.62;93.44
47763;BME280;33526;42.690;23.322;2022-11-15T02:36:30;95640.81;;;3.58;94.22
47763;BME280;33526;42.690;23.322;2022-11-15T02:41:50;95625.00;;;3.62;94.07
47763;BME280;33526;42.690;23.322;2022-11-15T02:44:23;95610.16;;;3.41;94.09
47763;BME280;33526;42.690;23.322;2022-11-15T02:46:53;95632.09;;;3.63;93.74
47763;BME280;33526;42.690;23.322;2022-11-15T02:49:41;95638.81;;;3.66;92.90
47763;BME280;33526;42.690;23.322;2022-11-15T02:52:07;95592.03;;;3.40;93.17
47763;BME280;33526;42.690;23.322;2022-11-15T02:54:33;95635.59;;;3.67;93.06
47763;BME280;33526;42.690;23.322;2022-11-15T02:57:19;95631.28;;;3.66;93.00
47763;BME280;33526;42.690;23.322;2022-11-15T03:00:14;95630.06;;;3.67;92.79
47763;BME280;33526;42.690;23.322;2022-11-15T03:03:09;95638.38;;;3.67;92.21
47763;BME280;33526;42.690;23.322;2022-11-15T03:05:47;95639.94;;;3.68;92.75
47763;BME280;33526;42.690;23.322;2022-11-15T03:08:32;95628.97;;;3.61;92.14
47763;BME280;33526;42.690;23.322;2022-11-15T03:11:07;95637.63;;;3.63;91.95
47763;BME280;33526;42.690;23.322;2022-11-15T03:16:09;95635.16;;;3.72;92.00
47763;BME280;33526;42.690;23.322;2022-11-15T03:19:13;95626.88;;;3.72;92.24
47763;BME280;33526;42.690;23.322;2022-11-15T03:21:41;95581.34;;;3.42;91.56
47763;BME280;33526;42.690;23.322;2022-11-15T03:24:08;95598.59;;;3.54;92.18
47763;BME280;33526;42.690;23.322;2022-11-15T03:26:36;95628.06;;;3.71;91.70
47763;BME280;33526;42.690;23.322;2022-11-15T03:29:21;95633.53;;;3.78;91.57
47763;BME280;33526;42.690;23.322;2022-11-15T03:31:50;95616.25;;;3.67;91.09
47763;BME280;33526;42.690;23.322;2022-11-15T03:36:45;95597.31;;;3.66;91.51
47763;BME280;33526;42.690;23.322;2022-11-15T03:39:12;95593.75;;;3.65;91.31
47763;BME280;33526;42.690;23.322;2022-11-15T03:41:56;95606.75;;;3.68;91.23
47763;BME280;33526;42.690;23.322;2022-11-15T03:50:16;95603.06;;;3.82;92.34
47763;BME280;33526;42.690;23.322;2022-11-15T03:52:42;95590.88;;;3.76;91.96
47763;BME280;33526;42.690;23.322;2022-11-15T03:55:12;95564.16;;;3.62;92.00
47763;BME280;33526;42.690;23.322;2022-11-15T03:57:38;95551.56;;;3.57;92.32
47763;BME280;33526;42.690;23.322;2022-11-15T04:00:04;95604.06;;;3.99;91.97
47763;BME280;33526;42.690;23.322;2022-11-15T04:02:30;95597.72;;;4.02;92.00
47763;BME280;33526;42.690;23.322;2022-11-15T04:04:55;95600.84;;;4.04;92.18
47763;BME280;33526;42.690;23.322;2022-11-15T04:07:20;95598.78;;;4.12;92.23
47763;BME280;33526;42.690;23.322;2022-11-15T04:09:46;95599.97;;;4.11;92.42
47763;BME280;33526;42.690;23.322;2022-11-15T04:12:35;95539.81;;;3.50;93.07
47763;BME280;33526;42.690;23.322;2022-11-15T04:15:05;95585.13;;;3.94;93.58
47763;BME280;33526;42.690;23.322;2022-11-15T04:20:06;95581.88;;;4.02;94.52
47763;BME280;33526;42.690;23.322;2022-11-15T04:22:58;95577.97;;;4.00;93.96
47763;BME280;33526;42.690;23.322;2022-11-15T04:25:43;95583.09;;;3.98;94.14
47763;BME280;33526;42.690;23.322;2022-11-15T04:28:09;95587.25;;;3.82;94.64
47763;BME280;33526;42.690;23.322;2022-11-15T04:30:35;95581.38;;;3.77;95.17
47763;BME280;33526;42.690;23.322;2022-11-15T04:33:00;95590.25;;;3.61;95.83
47763;BME280;33526;42.690;23.322;2022-11-15T04:35:26;95591.69;;;3.76;95.55
47763;BME280;33526;42.690;23.322;2022-11-15T04:37:52;95593.59;;;3.79;96.37
47763;BME280;33526;42.690;23.322;2022-11-15T04:40:17;95584.47;;;3.82;95.93
47763;BME280;33526;42.690;23.322;2022-11-15T04:42:43;95558.63;;;3.62;95.91
47763;BME280;33526;42.690;23.322;2022-11-15T04:45:09;95583.06;;;3.67;95.82
47763;BME280;33526;42.690;23.322;2022-11-15T04:47:34;95570.50;;;3.59;96.54
47763;BME280;33526;42.690;23.322;2022-11-15T04:50:00;95501.31;;;3.28;96.31
47763;BME280;33526;42.690;23.322;2022-11-15T04:52:25;95557.94;;;3.51;96.27
47763;BME280;33526;42.690;23.322;2022-11-15T04:54:51;95570.44;;;3.66;96.67
47763;BME280;33526;42.690;23.322;2022-11-15T04:57:17;95574.91;;;3.91;97.09
47763;BME280;33526;42.690;23.322;2022-11-15T04:59:42;95587.09;;;3.97;96.52
47763;BME280;33526;42.690;23.322;2022-11-15T05:02:08;95585.22;;;3.87;96.45
47763;BME280;33526;42.690;23.322;2022-11-15T05:04:33;95562.34;;;3.82;96.83
47763;BME280;33526;42.690;23.322;2022-11-15T05:07:00;95574.06;;;3.94;96.97
47763;BME280;33526;42.690;23.322;2022-11-15T05:09:25;95557.72;;;3.72;96.44
47763;BME280;33526;42.690;23.322;2022-11-15T05:11:51;95594.56;;;4.00;97.03
47763;BME280;33526;42.690;23.322;2022-11-15T05:14:16;95596.91;;;4.01;96.99
47763;BME280;33526;42.690;23.322;2022-11-15T05:16:42;95594.66;;;3.93;96.86
47763;BME280;33526;42.690;23.322;2022-11-15T05:19:07;95576.50;;;3.88;97.16
47763;BME280;33526;42.690;23.322;2022-11-15T05:21:33;95593.06;;;3.92;96.38
47763;BME280;33526;42.690;23.322;2022-11-15T05:23:59;95574.44;;;3.96;96.87
47763;BME280;33526;42.690;23.322;2022-11-15T05:26:25;95550.47;;;3.86;95.96
47763;BME280;33526;42.690;23.322;2022-11-15T05:28:58;95573.84;;;4.12;95.71
47763;BME280;33526;42.690;23.322;2022-11-15T05:31:24;95571.34;;;3.90;95.61
47763;BME280;33526;42.690;23.322;2022-11-15T05:33:51;95577.03;;;4.10;96.38
47763;BME280;33526;42.690;23.322;2022-11-15T05:36:41;95572.34;;;4.07;95.31
47763;BME280;33526;42.690;23.322;2022-11-15T05:39:07;95558.13;;;4.05;95.16
47763;BME280;33526;42.690;23.322;2022-11-15T05:44:01;95571.59;;;4.03;94.52
47763;BME280;33526;42.690;23.322;2022-11-15T05:46:29;95578.41;;;3.95;94.64
47763;BME280;33526;42.690;23.322;2022-11-15T05:48:55;95538.75;;;3.71;94.11
47763;BME280;33526;42.690;23.322;2022-11-15T05:51:22;95592.09;;;4.09;93.27
47763;BME280;33526;42.690;23.322;2022-11-15T05:53:48;95580.16;;;4.12;92.06
47763;BME280;33526;42.690;23.322;2022-11-15T05:56:15;95573.66;;;3.95;92.02
47763;BME280;33526;42.690;23.322;2022-11-15T05:58:41;95591.03;;;3.96;93.03
47763;BME280;33526;42.690;23.322;2022-11-15T06:01:07;95583.50;;;4.00;93.69
47763;BME280;33526;42.690;23.322;2022-11-15T06:03:32;95589.59;;;4.18;94.33
47763;BME280;33526;42.690;23.322;2022-11-15T06:05:58;95556.00;;;3.86;94.29
47763;BME280;33526;42.690;23.322;2022-11-15T06:08:24;95591.16;;;4.19;94.05
47763;BME280;33526;42.690;23.322;2022-11-15T06:10:50;95598.22;;;4.24;94.40
47763;BME280;33526;42.690;23.322;2022-11-15T06:13:15;95599.03;;;4.21;94.57
47763;BME280;33526;42.690;23.322;2022-11-15T06:15:41;95561.66;;;4.09;94.20
47763;BME280;33526;42.690;23.322;2022-11-15T06:18:06;95582.47;;;4.17;95.07
47763;BME280;33526;42.690;23.322;2022-11-15T06:20:31;95542.78;;;4.00;95.28
47763;BME280;33526;42.690;23.322;2022-11-15T06:23:01;95559.69;;;4.06;95.44
47763;BME280;33526;42.690;23.322;2022-11-15T06:25:28;95595.06;;;4.26;95.68
47763;BME280;33526;42.690;23.322;2022-11-15T06:27:55;95605.31;;;4.29;96.31
47763;BME280;33526;42.690;23.322;2022-11-15T06:30:21;95596.81;;;4.09;96.05
47763;BME280;33526;42.690;23.322;2022-11-15T06:32:47;95593.72;;;4.03;96.87
47763;BME280;33526;42.690;23.322;2022-11-15T06:35:14;95580.69;;;4.04;96.82
47763;BME280;33526;42.690;23.322;2022-11-15T06:37:40;95576.38;;;3.99;96.78
47763;BME280;33526;42.690;23.322;2022-11-15T06:40:07;95599.94;;;4.14;97.17
47763;BME280;33526;42.690;23.322;2022-11-15T06:42:33;95541.59;;;3.98;97.38
47763;BME280;33526;42.690;23.322;2022-11-15T06:44:58;95569.00;;;4.19;97.06
47763;BME280;33526;42.690;23.322;2022-11-15T06:47:24;95547.44;;;4.07;97.04
47763;BME280;33526;42.690;23.322;2022-11-15T06:49:49;95578.44;;;4.26;96.94
47763;BME280;33526;42.690;23.322;2022-11-15T06:52:15;95593.00;;;4.30;97.42
47763;BME280;33526;42.690;23.322;2022-11-15T06:54:43;95591.63;;;4.45;97.38
47763;BME280;33526;42.690;23.322;2022-11-15T06:57:09;95567.22;;;4.36;98.06
47763;BME280;33526;42.690;23.322;2022-11-15T06:59:34;95562.63;;;4.53;98.69
47763;BME280;33526;42.690;23.322;2022-11-15T07:02:00;95590.31;;;4.53;95.93
47763;BME280;33526;42.690;23.322;2022-11-15T07:04:25;95576.75;;;4.63;95.65
47763;BME280;33526;42.690;23.322;2022-11-15T07:06:51;95540.50;;;4.22;94.75
47763;BME280;33526;42.690;23.322;2022-11-15T07:09:16;95572.16;;;4.21;95.73
47763;BME280;33526;42.690;23.322;2022-11-15T07:11:41;95576.72;;;4.35;96.02
47763;BME280;33526;42.690;23.322;2022-11-15T07:14:07;95528.34;;;4.16;95.75
47763;BME280;33526;42.690;23.322;2022-11-15T07:16:32;95551.47;;;4.30;95.46
47763;BME280;33526;42.690;23.322;2022-11-15T07:18:59;95571.78;;;4.50;94.92
47763;BME280;33526;42.690;23.322;2022-11-15T07:21:24;95556.09;;;4.40;95.08
47763;BME280;33526;42.690;23.322;2022-11-15T07:23:49;95559.88;;;4.53;95.07
47763;BME280;33526;42.690;23.322;2022-11-15T07:26:15;95565.91;;;4.45;94.64
47763;BME280;33526;42.690;23.322;2022-11-15T07:28:40;95563.34;;;4.30;94.90
47763;BME280;33526;42.690;23.322;2022-11-15T07:31:07;95555.88;;;4.27;94.60
47763;BME280;33526;42.690;23.322;2022-11-15T07:33:34;95559.38;;;4.31;94.69
47763;BME280;33526;42.690;23.322;2022-11-15T07:36:05;95586.19;;;4.38;94.52
47763;BME280;33526;42.690;23.322;2022-11-15T07:38:34;95586.47;;;4.47;94.85
47763;BME280;33526;42.690;23.322;2022-11-15T07:41:01;95587.03;;;4.35;95.65
47763;BME280;33526;42.690;23.322;2022-11-15T07:43:27;95551.91;;;4.28;95.25
47763;BME280;33526;42.690;23.322;2022-11-15T07:45:55;95585.06;;;4.63;94.47
47763;BME280;33526;42.690;23.322;2022-11-15T07:48:20;95565.44;;;4.50;94.21
47763;BME280;33526;42.690;23.322;2022-11-15T07:50:45;95573.75;;;4.77;93.49
47763;BME280;33526;42.690;23.322;2022-11-15T07:53:11;95574.53;;;4.81;93.22
47763;BME280;33526;42.690;23.322;2022-11-15T07:55:37;95577.44;;;4.97;92.24
47763;BME280;33526;42.690;23.322;2022-11-15T07:58:08;95583.91;;;4.87;92.39
47763;BME280;33526;42.690;23.322;2022-11-15T08:00:35;95566.88;;;4.62;93.11
47763;BME280;33526;42.690;23.322;2022-11-15T08:03:10;95579.41;;;4.70;93.23
47763;BME280;33526;42.690;23.322;2022-11-15T08:05:37;95554.28;;;4.57;93.58
47763;BME280;33526;42.690;23.322;2022-11-15T08:08:02;95572.34;;;4.92;93.61
47763;BME280;33526;42.690;23.322;2022-11-15T08:10:28;95559.81;;;4.84;93.29
47763;BME280;33526;42.690;23.322;2022-11-15T08:13:02;95556.69;;;5.06;92.66
47763;BME280;33526;42.690;23.322;2022-11-15T08:15:29;95552.13;;;5.19;91.94
47763;BME280;33526;42.690;23.322;2022-11-15T08:17:59;95568.53;;;5.33;90.92
47763;BME280;33526;42.690;23.322;2022-11-15T08:20:27;95568.16;;;5.55;90.84
47763;BME280;33526;42.690;23.322;2022-11-15T08:22:58;95573.69;;;5.55;89.28
47763;BME280;33526;42.690;23.322;2022-11-15T08:25:26;95570.31;;;5.20;90.33
47763;BME280;33526;42.690;23.322;2022-11-15T08:27:57;95566.94;;;5.32;90.15
47763;BME280;33526;42.690;23.322;2022-11-15T08:30:23;95569.72;;;5.56;90.02
47763;BME280;33526;42.690;23.322;2022-11-15T08:32:50;95539.69;;;5.27;89.72
47763;BME280;33526;42.690;23.322;2022-11-15T08:35:16;95568.75;;;5.43;89.31
47763;BME280;33526;42.690;23.322;2022-11-15T08:37:41;95556.97;;;5.39;88.50
47763;BME280;33526;42.690;23.322;2022-11-15T08:40:07;95540.38;;;5.35;88.87
47763;BME280;33526;42.690;23.322;2022-11-15T08:42:34;95550.34;;;5.52;88.88
47763;BME280;33526;42.690;23.322;2022-11-15T08:44:59;95539.78;;;5.67;88.37
47763;BME280;33526;42.690;23.322;2022-11-15T08:47:25;95545.16;;;5.78;87.19
47763;BME280;33526;42.690;23.322;2022-11-15T08:49:51;95558.22;;;5.10;90.45
47763;BME280;33526;42.690;23.322;2022-11-15T08:52:18;95549.25;;;5.26;91.19
47763;BME280;33526;42.690;23.322;2022-11-15T08:54:43;95552.06;;;5.46;90.03
47763;BME280;33526;42.690;23.322;2022-11-15T08:57:09;95543.28;;;5.71;88.94
47763;BME280;33526;42.690;23.322;2022-11-15T08:59:35;95543.91;;;5.79;87.26
47763;BME280;33526;42.690;23.322;2022-11-15T09:02:01;95538.78;;;5.78;88.05
47763;BME280;33526;42.690;23.322;2022-11-15T09:04:26;95519.66;;;5.83;87.89
47763;BME280;33526;42.690;23.322;2022-11-15T09:06:52;95517.47;;;5.74;86.63
47763;BME280;33526;42.690;23.322;2022-11-15T09:09:18;95468.44;;;5.48;87.91
47763;BME280;33526;42.690;23.322;2022-11-15T09:11:43;95474.06;;;5.64;88.37
47763;BME280;33526;42.690;23.322;2022-11-15T09:14:13;95499.19;;;5.97;87.92
47763;BME280;33526;42.690;23.322;2022-11-15T09:16:39;95526.66;;;6.11;86.64
47763;BME280;33526;42.690;23.322;2022-11-15T09:19:04;95520.19;;;6.18;86.00
47763;BME280;33526;42.690;23.322;2022-11-15T09:21:30;95508.06;;;6.08;85.36
47763;BME280;33526;42.690;23.322;2022-11-15T09:23:56;95502.50;;;6.08;85.69
47763;BME280;33526;42.690;23.322;2022-11-15T09:26:21;95511.38;;;6.03;86.49
47763;BME280;33526;42.690;23.322;2022-11-15T09:28:47;95490.97;;;5.90;87.08
47763;BME280;33526;42.690;23.322;2022-11-15T09:31:12;95487.94;;;6.04;86.03
47763;BME280;33526;42.690;23.322;2022-11-15T09:33:38;95503.31;;;6.09;86.46
47763;BME280;33526;42.690;23.322;2022-11-15T09:36:06;95479.34;;;5.99;86.13
47763;BME280;33526;42.690;23.322;2022-11-15T09:38:32;95495.66;;;6.33;86.48
47763;BME280;33526;42.690;23.322;2022-11-15T09:46:15;95486.75;;;6.05;87.23
47763;BME280;33526;42.690;23.322;2022-11-15T09:48:54;95472.19;;;5.98;86.75
47763;BME280;33526;42.690;23.322;2022-11-15T09:51:41;95475.56;;;6.09;86.46
47763;BME280;33526;42.690;23.322;2022-11-15T09:54:34;95479.06;;;6.29;85.65
47763;BME280;33526;42.690;23.322;2022-11-15T09:57:09;95473.53;;;6.62;85.22
47763;BME280;33526;42.690;23.322;2022-11-15T10:04:45;95427.63;;;6.58;84.34
47763;BME280;33526;42.690;23.322;2022-11-15T10:10:00;95452.81;;;6.67;83.22
47763;BME280;33526;42.690;23.322;2022-11-15T10:12:28;95457.25;;;6.81;83.86
47763;BME280;33526;42.690;23.322;2022-11-15T10:15:10;95431.78;;;6.66;84.88
47763;BME280;33526;42.690;23.322;2022-11-15T10:20:13;95441.16;;;7.05;82.45
47763;BME280;33526;42.690;23.322;2022-11-15T10:22:47;95437.03;;;7.26;81.52
47763;BME280;33526;42.690;23.322;2022-11-15T10:25:31;95442.53;;;6.97;81.69
47763;BME280;33526;42.690;23.322;2022-11-15T10:30:43;95424.50;;;6.88;83.70
47763;BME280;33526;42.690;23.322;2022-11-15T10:35:42;95413.69;;;7.07;82.16
47763;BME280;33526;42.690;23.322;2022-11-15T10:38:11;95414.16;;;7.18;81.82
47763;BME280;33526;42.690;23.322;2022-11-15T10:40:39;95385.81;;;7.23;82.03
47763;BME280;33526;42.690;23.322;2022-11-15T10:43:13;95386.94;;;7.55;81.32
47763;BME280;33526;42.690;23.322;2022-11-15T10:45:39;95356.22;;;7.17;79.93
47763;BME280;33526;42.690;23.322;2022-11-15T10:50:37;95380.81;;;7.47;82.21
47763;BME280;33526;42.690;23.322;2022-11-15T10:53:24;95380.72;;;7.51;80.81
47763;BME280;33526;42.690;23.322;2022-11-15T10:55:53;95376.69;;;7.52;80.35
47763;BME280;33526;42.690;23.322;2022-11-15T11:00:45;95379.34;;;6.84;83.31
47763;BME280;33526;42.690;23.322;2022-11-15T11:03:33;95367.84;;;6.82;83.08
47763;BME280;33526;42.690;23.322;2022-11-15T11:06:18;95356.38;;;6.80;84.35
47763;BME280;33526;42.690;23.322;2022-11-15T11:09:01;95348.06;;;6.80;83.60
47763;BME280;33526;42.690;23.322;2022-11-15T11:11:48;95359.31;;;6.89;83.46
47763;BME280;33526;42.690;23.322;2022-11-15T11:14:37;95351.06;;;7.02;82.95
47763;BME280;33526;42.690;23.322;2022-11-15T13:23:09;95174.00;;;7.76;81.58
47763;BME280;33526;42.690;23.322;2022-11-15T13:28:46;95165.34;;;7.74;81.81
47763;BME280;33526;42.690;23.322;2022-11-15T13:39:45;95150.63;;;7.74;82.03
47763;BME280;33526;42.690;23.322;2022-11-15T13:42:15;95129.38;;;7.67;81.50
47763;BME280;33526;42.690;23.322;2022-11-15T13:44:54;95123.50;;;7.52;81.90
47763;BME280;33526;42.690;23.322;2022-11-15T13:47:20;95136.69;;;7.74;81.59
47763;BME280;33526;42.690;23.322;2022-11-15T13:49:46;95141.25;;;7.80;81.77
47763;BME280;33526;42.690;23.322;2022-11-15T23:27:06;94735.41;;;3.79;94.95
